Time;durP1;ratioP1;P1;durP2;ratioP2;P2;SDS_P1;SDS_P2;PMS_P1;PMS_P2;Temp;Humidity;BMP_temperature;BMP_pressure;BME280_temperature;BME280_humidity;BME280_pressure;Samples;Min_cycle;Max_cycle;Signal;HPM_P1;HPM_P2
2023/07/20 00:01:44;;;;;;;5.65;3.63;;;;;;;;;;4976808;28;20137;-83
2023/07/20 00:04:10;;;;;;;6.93;4.10;;;;;;;;;;4963284;28;20054;-82
2023/07/20 00:06:36;;;;;;;7.40;4.32;;;;;;;;;;4963083;28;20113;-83
2023/07/20 00:09:01;;;;;;;8.00;4.50;;;;;;;;;;4955630;28;20537;-83
2023/07/20 00:11:27;;;;;;;6.28;4.25;;;;;;;;;;4952257;28;20628;-82
2023/07/20 00:13:53;;;;;;;6.85;4.65;;;;;;;;;;4942610;28;20538;-82
2023/07/20 00:16:18;;;;;;;6.60;4.47;;;;;;;;;;4960342;28;20088;-83
2023/07/20 00:18:44;;;;;;;8.02;4.95;;;;;;;;;;4970385;28;20046;-82
2023/07/20 00:21:09;;;;;;;7.95;4.80;;;;;;;;;;4965126;28;20038;-82
2023/07/20 00:23:35;;;;;;;6.00;4.60;;;;;;;;;;4945904;28;20080;-82
2023/07/20 00:26:00;;;;;;;6.03;4.65;;;;;;;;;;4965258;28;20748;-82
2023/07/20 00:28:26;;;;;;;7.85;5.10;;;;;;;;;;4954475;28;20047;-82
2023/07/20 00:31:14;;;;;;;6.22;4.65;;;;;;;;;;4954855;28;20173;-83
2023/07/20 00:33:40;;;;;;;5.38;4.50;;;;;;;;;;4926700;29;20765;-82
2023/07/20 00:36:05;;;;;;;7.72;4.57;;;;;;;;;;4909246;29;20074;-82
2023/07/20 00:38:34;;;;;;;9.32;5.25;;;;;;;;;;4942133;28;20560;-81
2023/07/20 00:40:59;;;;;;;8.70;5.50;;;;;;;;;;4947399;28;20042;-82
2023/07/20 00:43:24;;;;;;;6.38;5.20;;;;;;;;;;4933905;28;20470;-83
2023/07/20 00:45:54;;;;;;;6.25;4.68;;;;;;;;;;4963970;28;20035;-82
2023/07/20 00:48:20;;;;;;;7.22;5.85;;;;;;;;;;4937693;28;20058;-82
2023/07/20 00:50:46;;;;;;;7.78;5.30;;;;;;;;;;4937540;28;20376;-83
2023/07/20 00:53:20;;;;;;;7.70;5.68;;;;;;;;;;4948092;28;20043;-81
2023/07/20 00:55:45;;;;;;;5.88;5.00;;;;;;;;;;4931058;28;20043;-82
2023/07/20 00:58:11;;;;;;;6.38;4.75;;;;;;;;;;4931693;28;20073;-82
2023/07/20 01:00:39;;;;;;;6.00;5.25;;;;;;;;;;4963155;28;20035;-82
2023/07/20 01:03:04;;;;;;;;;;;;;;;;;;4948263;28;20038;-82
2023/07/20 01:05:41;;;;;;;6.28;5.40;;;;;;;;;;4947010;28;20435;-82
2023/07/20 01:08:18;;;;;;;7.65;5.78;;;;;;;;;;4938449;28;20035;-82
2023/07/20 01:10:52;;;;;;;7.90;6.05;;;;;;;;;;4957689;28;20046;-82
2023/07/20 01:13:19;;;;;;;7.75;5.85;;;;;;;;;;5000240;28;20026;-82
2023/07/20 01:15:50;;;;;;;7.22;5.88;;;;;;;;;;4973905;28;20147;-82
2023/07/20 01:18:15;;;;;;;8.23;6.15;;;;;;;;;;5015935;28;20117;-82
2023/07/20 01:20:41;;;;;;;7.70;5.97;;;;;;;;;;4991263;28;20123;-82
2023/07/20 01:23:24;;;;;;;6.68;5.90;;;;;;;;;;5016568;28;20045;-82
2023/07/20 01:26:04;;;;;;;8.00;6.25;;;;;;;;;;5012581;28;20043;-81
2023/07/20 01:28:45;;;;;;;8.63;6.35;;;;;;;;;;5015029;28;20500;-82
2023/07/20 01:31:30;;;;;;;9.07;6.00;;;;;;;;;;5012889;28;20034;-81
2023/07/20 01:33:58;;;;;;;10.00;6.85;;;;;;;;;;4996267;28;20498;-83
2023/07/20 01:36:24;;;;;;;;;;;;;;;;;;4972109;28;20030;-82
2023/07/20 01:38:51;;;;;;;9.35;6.90;;;;;;;;;;5015218;28;20370;-82
2023/07/20 01:41:17;;;;;;;8.30;7.05;;;;;;;;;;4986685;28;20040;-82
2023/07/20 01:43:43;;;;;;;7.82;6.40;;;;;;;;;;5000444;28;20061;-82
2023/07/20 01:46:09;;;;;;;8.15;6.38;;;;;;;;;;5013728;28;20073;-82
2023/07/20 01:48:34;;;;;;;6.68;5.93;;;;;;;;;;4991822;28;20056;-83
2023/07/20 01:51:00;;;;;;;9.05;6.72;;;;;;;;;;5014499;28;20026;-82
2023/07/20 01:53:25;;;;;;;9.20;6.53;;;;;;;;;;4999010;28;20045;-81
2023/07/20 01:55:54;;;;;;;7.63;6.53;;;;;;;;;;4997740;28;20029;-81
2023/07/20 01:58:19;;;;;;;8.57;6.63;;;;;;;;;;5010773;28;20034;-82
2023/07/20 02:00:47;;;;;;;6.90;6.18;;;;;;;;;;4996934;28;20037;-81
2023/07/20 02:03:12;;;;;;;8.57;6.50;;;;;;;;;;5017202;28;20046;-82
2023/07/20 02:05:38;;;;;;;8.57;6.63;;;;;;;;;;4997850;28;20049;-82
2023/07/20 02:08:04;;;;;;;7.82;6.38;;;;;;;;;;4998569;28;20041;-81
2023/07/20 02:10:29;;;;;;;8.10;6.60;;;;;;;;;;4998084;28;20057;-83
2023/07/20 02:12:55;;;;;;;9.07;5.95;;;;;;;;;;4997835;28;20488;-82
2023/07/20 02:15:21;;;;;;;8.98;5.97;;;;;;;;;;4978470;28;20034;-82
2023/07/20 02:17:46;;;;;;;8.85;6.50;;;;;;;;;;4997345;28;20034;-82
2023/07/20 02:20:12;;;;;;;8.13;6.38;;;;;;;;;;4999766;28;20042;-82
2023/07/20 02:22:38;;;;;;;7.70;6.40;;;;;;;;;;5007239;28;20502;-82
2023/07/20 02:25:07;;;;;;;7.50;6.22;;;;;;;;;;4979059;28;20406;-82
2023/07/20 02:27:33;;;;;;;8.68;6.38;;;;;;;;;;4996648;28;20406;-81
2023/07/20 02:29:59;;;;;;;9.35;6.35;;;;;;;;;;4997558;28;20030;-82
2023/07/20 02:32:24;;;;;;;9.40;6.93;;;;;;;;;;4980618;28;20035;-82
2023/07/20 02:34:50;;;;;;;9.05;6.95;;;;;;;;;;4996228;28;20053;-82
2023/07/20 02:37:16;;;;;;;9.73;6.85;;;;;;;;;;4998236;28;20042;-82
2023/07/20 02:39:42;;;;;;;8.77;6.60;;;;;;;;;;4997396;28;20076;-82
2023/07/20 02:42:07;;;;;;;8.85;6.30;;;;;;;;;;5013926;28;20061;-81
2023/07/20 02:44:33;;;;;;;8.18;6.45;;;;;;;;;;4984286;28;20072;-81
2023/07/20 02:46:58;;;;;;;8.93;6.45;;;;;;;;;;5019492;28;20093;-81
2023/07/20 02:49:23;;;;;;;9.18;6.80;;;;;;;;;;4985381;28;20105;-82
2023/07/20 02:51:49;;;;;;;10.18;6.95;;;;;;;;;;4999894;28;20030;-82
2023/07/20 02:54:15;;;;;;;8.13;6.57;;;;;;;;;;5017159;28;20030;-81
2023/07/20 02:56:40;;;;;;;8.90;6.43;;;;;;;;;;5001101;28;20034;-82
2023/07/20 02:59:08;;;;;;;11.73;7.70;;;;;;;;;;4977010;28;20034;-81
2023/07/20 03:01:34;;;;;;;8.88;7.53;;;;;;;;;;5017755;28;20046;-81
2023/07/20 03:03:59;;;;;;;9.45;7.35;;;;;;;;;;5017911;28;20052;-81
2023/07/20 03:06:25;;;;;;;9.55;7.78;;;;;;;;;;5000297;28;20431;-82
2023/07/20 03:08:53;;;;;;;11.05;8.50;;;;;;;;;;5002756;28;20030;-81
2023/07/20 03:11:19;;;;;;;10.90;9.15;;;;;;;;;;4985086;28;20049;-81
2023/07/20 03:13:45;;;;;;;12.73;9.60;;;;;;;;;;5016865;28;20037;-81
2023/07/20 03:16:15;;;;;;;12.43;9.45;;;;;;;;;;5001217;28;20426;-82
2023/07/20 03:18:41;;;;;;;10.40;9.25;;;;;;;;;;5020063;28;20078;-81
2023/07/20 03:21:13;;;;;;;10.43;9.00;;;;;;;;;;5001612;28;20053;-80
2023/07/20 03:23:39;;;;;;;10.10;8.77;;;;;;;;;;5017453;28;20042;-82
2023/07/20 03:26:05;;;;;;;11.15;9.40;;;;;;;;;;5000391;28;20100;-82
2023/07/20 03:28:30;;;;;;;11.52;9.30;;;;;;;;;;5009501;28;20038;-82
2023/07/20 03:30:56;;;;;;;11.77;10.18;;;;;;;;;;4999281;28;20041;-82
2023/07/20 03:33:26;;;;;;;11.60;10.40;;;;;;;;;;5002780;28;20484;-82
2023/07/20 03:35:51;;;;;;;12.13;10.68;;;;;;;;;;5003053;28;20038;-82
2023/07/20 03:38:17;;;;;;;13.00;10.63;;;;;;;;;;4988427;28;20042;-81
2023/07/20 03:40:59;;;;;;;11.77;10.18;;;;;;;;;;4999997;28;20035;-82
2023/07/20 03:43:27;;;;;;;12.15;10.50;;;;;;;;;;5005395;28;21104;-81
2023/07/20 03:45:53;;;;;;;12.45;10.77;;;;;;;;;;5016478;28;20038;-82
2023/07/20 03:48:22;;;;;;;12.13;10.15;;;;;;;;;;5003370;28;20038;-81
2023/07/20 03:50:49;;;;;;;10.75;9.35;;;;;;;;;;4998610;28;20057;-81
2023/07/20 03:53:15;;;;;;;12.67;10.60;;;;;;;;;;4987496;28;20045;-81
2023/07/20 03:55:51;;;;;;;10.52;9.40;;;;;;;;;;5013734;28;20032;-80
2023/07/20 03:58:17;;;;;;;12.23;9.73;;;;;;;;;;4993088;28;20079;-81
2023/07/20 04:00:47;;;;;;;10.68;9.25;;;;;;;;;;4997711;28;20052;-81
2023/07/20 04:03:13;;;;;;;12.45;9.10;;;;;;;;;;5000523;28;20065;-82
2023/07/20 04:05:39;;;;;;;14.00;9.30;;;;;;;;;;4988402;28;20112;-80
2023/07/20 04:08:04;;;;;;;11.93;9.30;;;;;;;;;;5011963;28;20568;-80
2023/07/20 04:10:29;;;;;;;9.95;8.60;;;;;;;;;;5017435;28;20124;-81
2023/07/20 04:12:55;;;;;;;10.63;9.35;;;;;;;;;;5000912;28;20072;-80
2023/07/20 04:15:20;;;;;;;11.00;8.68;;;;;;;;;;5000015;28;20465;-82
2023/07/20 04:17:46;;;;;;;11.32;8.82;;;;;;;;;;5014599;28;20048;-80
2023/07/20 04:20:11;;;;;;;9.23;8.32;;;;;;;;;;4984066;28;20038;-82
2023/07/20 04:22:37;;;;;;;11.13;9.18;;;;;;;;;;5018065;28;20409;-83
2023/07/20 04:25:03;;;;;;;11.13;8.75;;;;;;;;;;5017322;28;20037;-84
2023/07/20 04:27:29;;;;;;;9.75;8.75;;;;;;;;;;4975284;28;20485;-82
2023/07/20 04:29:54;;;;;;;10.70;8.65;;;;;;;;;;5013629;28;20057;-82
2023/07/20 04:32:20;;;;;;;11.38;9.27;;;;;;;;;;5009627;28;20399;-83
2023/07/20 04:34:45;;;;;;;14.80;9.60;;;;;;;;;;5017843;28;20034;-82
2023/07/20 04:37:10;;;;;;;11.43;8.68;;;;;;;;;;4997955;28;20042;-83
2023/07/20 04:39:36;;;;;;;11.43;8.65;;;;;;;;;;4998516;28;20100;-83
2023/07/20 04:42:01;;;;;;;12.80;9.60;;;;;;;;;;5016880;28;20048;-84
2023/07/20 04:44:27;;;;;;;12.75;9.35;;;;;;;;;;4997363;28;20389;-84
2023/07/20 04:46:52;;;;;;;12.93;9.75;;;;;;;;;;4998133;28;20397;-83
2023/07/20 04:49:18;;;;;;;10.27;8.52;;;;;;;;;;4993583;28;20034;-84
2023/07/20 04:51:44;;;;;;;10.10;8.82;;;;;;;;;;5003145;28;20092;-83
2023/07/20 04:54:10;;;;;;;12.90;8.07;;;;;;;;;;4976856;28;20036;-83
2023/07/20 04:56:35;;;;;;;11.98;8.27;;;;;;;;;;4982769;28;20656;-84
2023/07/20 04:59:01;;;;;;;9.35;7.85;;;;;;;;;;4990335;28;20045;-84
2023/07/20 05:01:26;;;;;;;10.52;7.35;;;;;;;;;;5015793;28;20038;-83
2023/07/20 05:03:53;;;;;;;9.52;8.38;;;;;;;;;;5011412;28;20037;-84
2023/07/20 05:06:18;;;;;;;10.98;7.68;;;;;;;;;;5002023;28;20069;-84
2023/07/20 05:08:44;;;;;;;10.30;8.13;;;;;;;;;;4999283;28;20117;-84
2023/07/20 05:11:10;;;;;;;10.55;7.53;;;;;;;;;;4985711;28;20132;-84
2023/07/20 05:13:36;;;;;;;10.30;7.82;;;;;;;;;;4998824;28;20509;-82
2023/07/20 05:16:02;;;;;;;9.13;7.72;;;;;;;;;;4992991;28;20132;-83
2023/07/20 05:18:27;;;;;;;10.82;7.85;;;;;;;;;;4990836;28;20070;-83
2023/07/20 05:20:54;;;;;;;12.13;7.18;;;;;;;;;;4998780;28;20034;-84
2023/07/20 05:23:21;;;;;;;10.18;7.47;;;;;;;;;;4999429;28;20088;-84
2023/07/20 05:25:47;;;;;;;8.73;7.20;;;;;;;;;;4983609;28;20443;-83
2023/07/20 05:28:12;;;;;;;10.27;7.18;;;;;;;;;;4998542;28;20037;-82
2023/07/20 05:30:38;;;;;;;10.82;8.05;;;;;;;;;;4980737;28;20045;-82
2023/07/20 05:33:03;;;;;;;10.93;7.30;;;;;;;;;;4997998;28;20025;-83
2023/07/20 05:35:29;;;;;;;10.32;7.43;;;;;;;;;;4985810;28;20129;-81
2023/07/20 05:37:57;;;;;;;9.85;7.53;;;;;;;;;;5013860;28;20049;-83
2023/07/20 05:40:24;;;;;;;8.98;7.45;;;;;;;;;;4985356;28;20041;-83
2023/07/20 05:42:51;;;;;;;12.27;7.72;;;;;;;;;;4994956;28;20445;-83
2023/07/20 05:45:20;;;;;;;8.73;6.68;;;;;;;;;;4996301;28;20406;-84
2023/07/20 05:47:46;;;;;;;9.95;7.40;;;;;;;;;;4992817;28;20029;-83
2023/07/20 05:50:11;;;;;;;10.05;6.93;;;;;;;;;;4995133;28;20037;-84
2023/07/20 05:52:40;;;;;;;9.95;7.43;;;;;;;;;;4994758;28;20088;-82
2023/07/20 05:55:06;;;;;;;10.82;7.75;;;;;;;;;;4988928;28;20060;-83
2023/07/20 05:57:31;;;;;;;12.23;7.38;;;;;;;;;;4990085;28;20478;-83
2023/07/20 06:00:08;;;;;;;9.07;6.22;;;;;;;;;;4988032;28;20028;-83
2023/07/20 06:02:33;;;;;;;9.23;6.72;;;;;;;;;;5011298;28;20512;-83
2023/07/20 06:05:01;;;;;;;9.68;6.43;;;;;;;;;;4984122;28;20042;-84
2023/07/20 06:07:30;;;;;;;8.45;6.95;;;;;;;;;;4997657;28;20513;-83
2023/07/20 06:09:55;;;;;;;10.65;7.15;;;;;;;;;;4991907;28;20038;-83
2023/07/20 06:12:21;;;;;;;9.57;6.75;;;;;;;;;;4974364;28;20088;-84
2023/07/20 06:14:48;;;;;;;9.73;6.90;;;;;;;;;;5001821;28;20422;-83
2023/07/20 06:17:33;;;;;;;9.95;7.22;;;;;;;;;;4991110;28;20144;-81
2023/07/20 06:19:59;;;;;;;13.85;7.30;;;;;;;;;;4947016;28;20039;-80
2023/07/20 06:22:24;;;;;;;9.60;6.90;;;;;;;;;;4931423;28;20554;-80
2023/07/20 06:24:50;;;;;;;9.55;7.55;;;;;;;;;;4949427;28;20781;-81
2023/07/20 06:27:15;;;;;;;9.00;6.93;;;;;;;;;;4931097;28;20035;-80
2023/07/20 06:29:41;;;;;;;8.43;6.90;;;;;;;;;;4926443;28;20388;-82
2023/07/20 06:32:07;;;;;;;9.10;6.47;;;;;;;;;;4931192;28;20031;-80
2023/07/20 06:34:36;;;;;;;7.20;5.47;;;;;;;;;;4925230;28;20130;-80
2023/07/20 06:37:03;;;;;;;6.53;4.70;;;;;;;;;;4946864;28;20031;-80
2023/07/20 06:39:29;;;;;;;7.38;5.22;;;;;;;;;;4947639;28;20081;-82
2023/07/20 06:41:55;;;;;;;7.70;5.18;;;;;;;;;;4934151;28;20273;-80
2023/07/20 06:44:20;;;;;;;6.25;4.72;;;;;;;;;;4931282;29;20039;-80
2023/07/20 06:46:45;;;;;;;6.68;4.43;;;;;;;;;;4928736;28;20491;-80
2023/07/20 06:49:24;;;;;;;6.80;4.72;;;;;;;;;;4934058;28;20365;-80
2023/07/20 06:51:50;;;;;;;6.35;3.80;;;;;;;;;;4927116;29;20518;-81
2023/07/20 06:54:15;;;;;;;5.70;3.90;;;;;;;;;;4922932;28;20043;-81
2023/07/20 06:56:41;;;;;;;6.53;3.50;;;;;;;;;;4953889;28;20053;-81
2023/07/20 06:59:17;;;;;;;5.60;3.15;;;;;;;;;;4992647;28;20047;-81
2023/07/20 07:01:42;;;;;;;3.95;2.58;;;;;;;;;;4992174;28;20026;-80
2023/07/20 07:04:07;;;;;;;4.22;2.63;;;;;;;;;;4997356;28;20037;-82
2023/07/20 07:06:33;;;;;;;4.28;2.50;;;;;;;;;;4994145;28;20553;-80
2023/07/20 07:09:01;;;;;;;3.58;2.15;;;;;;;;;;5007781;28;20034;-81
2023/07/20 07:11:27;;;;;;;4.22;2.58;;;;;;;;;;5017474;28;20934;-81
2023/07/20 07:13:53;;;;;;;3.53;2.20;;;;;;;;;;4985631;28;20489;-82
2023/07/20 07:16:19;;;;;;;4.40;2.40;;;;;;;;;;5002027;28;20125;-79
2023/07/20 07:18:53;;;;;;;3.28;1.92;;;;;;;;;;4984464;28;20041;-80
2023/07/20 07:21:19;;;;;;;3.53;1.48;;;;;;;;;;5013089;28;20030;-79
2023/07/20 07:23:45;;;;;;;3.67;1.40;;;;;;;;;;5000236;28;20026;-80
2023/07/20 07:26:11;;;;;;;3.53;1.38;;;;;;;;;;5002286;28;20779;-79
2023/07/20 07:28:39;;;;;;;2.85;1.30;;;;;;;;;;4999323;28;20042;-80
2023/07/20 07:31:06;;;;;;;2.90;1.20;;;;;;;;;;4984652;28;20580;-81
2023/07/20 07:33:31;;;;;;;3.45;1.20;;;;;;;;;;5001469;28;20045;-81
2023/07/20 07:35:57;;;;;;;2.80;0.95;;;;;;;;;;5003409;28;20040;-81
2023/07/20 07:38:23;;;;;;;3.25;1.33;;;;;;;;;;5018443;28;20575;-82
2023/07/20 07:40:48;;;;;;;1.58;0.80;;;;;;;;;;5015229;28;20457;-82
2023/07/20 07:43:14;;;;;;;2.33;0.98;;;;;;;;;;5000459;28;20041;-82
2023/07/20 07:45:40;;;;;;;9.70;5.65;;;;;;;;;;4997443;28;20246;-83
2023/07/20 07:48:06;;;;;;;22.30;13.68;;;;;;;;;;4980960;28;20485;-82
2023/07/20 07:50:31;;;;;;;4.25;1.58;;;;;;;;;;5007519;28;20096;-82
2023/07/20 07:52:57;;;;;;;5.97;1.48;;;;;;;;;;5015918;28;20401;-82
2023/07/20 07:55:22;;;;;;;4.93;1.55;;;;;;;;;;4998018;28;20038;-82
2023/07/20 07:57:48;;;;;;;2.75;1.13;;;;;;;;;;4997647;28;20138;-83
2023/07/20 08:00:14;;;;;;;3.67;1.25;;;;;;;;;;4988731;28;20041;-88
2023/07/20 08:02:42;;;;;;;2.25;0.70;;;;;;;;;;4974978;28;20041;-88
2023/07/20 08:05:07;;;;;;;1.48;0.60;;;;;;;;;;5001890;28;20141;-88
2023/07/20 08:07:33;;;;;;;2.85;0.60;;;;;;;;;;5017482;28;20140;-87
2023/07/20 08:10:00;;;;;;;1.20;0.60;;;;;;;;;;5000979;28;20041;-86
2023/07/20 08:12:28;;;;;;;4.28;1.95;;;;;;;;;;4999955;28;20049;-86
2023/07/20 08:14:56;;;;;;;2.42;1.00;;;;;;;;;;5014121;28;20058;-86
2023/07/20 08:17:22;;;;;;;1.63;0.60;;;;;;;;;;5000280;28;20038;-87
2023/07/20 08:19:49;;;;;;;2.53;0.93;;;;;;;;;;5001521;28;20490;-86
2023/07/20 08:22:15;;;;;;;;;;;;;;;;;;5008794;28;20124;-87
2023/07/20 08:24:41;;;;;;;2.55;0.82;;;;;;;;;;5002996;28;20128;-87
2023/07/20 08:27:08;;;;;;;1.70;0.60;;;;;;;;;;4999790;28;20612;-88
2023/07/20 08:29:34;;;;;;;3.10;0.82;;;;;;;;;;5017714;28;20362;-88
2023/07/20 08:31:59;;;;;;;1.70;0.60;;;;;;;;;;4990813;28;20038;-87
2023/07/20 08:34:25;;;;;;;3.30;0.60;;;;;;;;;;4990107;28;20038;-87
2023/07/20 08:36:53;;;;;;;2.25;0.52;;;;;;;;;;4963813;28;20041;-86
2023/07/20 08:39:28;;;;;;;2.42;0.70;;;;;;;;;;4971107;28;20033;-87
2023/07/20 08:42:00;;;;;;;1.52;0.57;;;;;;;;;;4956352;28;20061;-88
2023/07/20 08:44:50;;;;;;;3.53;0.60;;;;;;;;;;4991202;28;20039;-86
2023/07/20 08:47:27;;;;;;;2.10;0.50;;;;;;;;;;4952544;28;20034;-88
2023/07/20 08:49:54;;;;;;;1.48;0.45;;;;;;;;;;4934471;28;20039;-87
2023/07/20 08:52:27;;;;;;;3.65;0.70;;;;;;;;;;4937170;28;20050;-86
2023/07/20 08:55:13;;;;;;;3.00;0.60;;;;;;;;;;4946973;28;20039;-88
2023/07/20 08:57:42;;;;;;;1.35;0.45;;;;;;;;;;4917044;28;20043;-89
2023/07/20 09:00:12;;;;;;;1.02;0.30;;;;;;;;;;4953614;28;20487;-89
2023/07/20 09:02:41;;;;;;;0.75;0.32;;;;;;;;;;4914099;28;20037;-88
2023/07/20 09:05:09;;;;;;;1.70;0.40;;;;;;;;;;4946978;28;20157;-86
2023/07/20 09:07:36;;;;;;;2.15;0.40;;;;;;;;;;4962982;28;20186;-88
2023/07/20 09:10:15;;;;;;;0.63;0.30;;;;;;;;;;4953273;28;20039;-87
2023/07/20 09:12:42;;;;;;;2.08;0.30;;;;;;;;;;4913741;28;20047;-88
2023/07/20 09:15:12;;;;;;;0.98;0.28;;;;;;;;;;4952591;28;20080;-86
2023/07/20 09:17:38;;;;;;;0.75;0.20;;;;;;;;;;4948653;28;20031;-88
2023/07/20 09:20:11;;;;;;;1.55;0.35;;;;;;;;;;4949733;28;20058;-88
2023/07/20 09:23:06;;;;;;;0.60;0.30;;;;;;;;;;4945456;28;20046;-87
2023/07/20 09:25:32;;;;;;;1.95;0.40;;;;;;;;;;4997187;28;20556;-89
2023/07/20 09:28:02;;;;;;;1.85;0.30;;;;;;;;;;5000227;28;20034;-88
2023/07/20 09:30:27;;;;;;;0.85;0.30;;;;;;;;;;5004913;28;20049;-88
2023/07/20 09:32:53;;;;;;;1.52;0.50;;;;;;;;;;4996173;28;20041;-87
2023/07/20 09:35:22;;;;;;;1.02;0.30;;;;;;;;;;4996965;28;20045;-88
2023/07/20 09:38:06;;;;;;;1.17;0.38;;;;;;;;;;5015887;28;20038;-87
2023/07/20 09:40:38;;;;;;;2.70;0.47;;;;;;;;;;4996876;28;20046;-87
2023/07/20 09:43:08;;;;;;;6.22;0.80;;;;;;;;;;5015492;28;20030;-87
2023/07/20 09:45:39;;;;;;;2.10;0.40;;;;;;;;;;4986437;28;20568;-88
2023/07/20 09:48:12;;;;;;;4.47;0.93;;;;;;;;;;4982822;28;20033;-89
2023/07/20 09:50:42;;;;;;;3.08;0.70;;;;;;;;;;4989789;28;20549;-91
2023/07/20 09:53:43;;;;;;;2.00;0.60;;;;;;;;;;4981072;28;20393;-87
2023/07/20 09:56:10;;;;;;;2.60;0.95;;;;;;;;;;4965552;28;20421;-86
2023/07/20 09:58:36;;;;;;;2.13;0.60;;;;;;;;;;4973915;28;20053;-86
2023/07/20 10:01:10;;;;;;;2.63;0.60;;;;;;;;;;4988257;28;20451;-87
2023/07/20 10:03:37;;;;;;;1.80;0.68;;;;;;;;;;4995604;28;20477;-87
2023/07/20 10:06:13;;;;;;;1.85;0.60;;;;;;;;;;4970436;28;20031;-86
2023/07/20 10:09:25;;;;;;;1.63;0.60;;;;;;;;;;4975337;28;20056;-87
2023/07/20 10:11:51;;;;;;;1.80;0.60;;;;;;;;;;4994237;28;20105;-85
2023/07/20 10:14:30;;;;;;;1.90;0.60;;;;;;;;;;4998693;28;20065;-86
2023/07/20 10:16:58;;;;;;;3.55;0.73;;;;;;;;;;4993195;28;20390;-86
2023/07/20 10:22:54;;;;;;;3.38;0.82;;;;;;;;;;4988248;28;20057;-86
2023/07/20 10:25:45;;;;;;;2.80;0.70;;;;;;;;;;4964088;28;20481;-86
2023/07/20 10:31:29;;;;;;;5.35;0.60;;;;;;;;;;4959010;28;20473;-88
2023/07/20 10:33:58;;;;;;;5.13;0.63;;;;;;;;;;4977605;28;20045;-86
2023/07/20 10:36:55;;;;;;;2.72;0.60;;;;;;;;;;4992718;28;20033;-85
2023/07/20 10:39:33;;;;;;;2.38;0.40;;;;;;;;;;4935691;28;20243;-86
2023/07/20 10:42:07;;;;;;;3.13;0.50;;;;;;;;;;4966128;28;20046;-86
2023/07/20 10:44:36;;;;;;;0.90;0.40;;;;;;;;;;4983390;28;20095;-85
2023/07/20 10:47:07;;;;;;;4.35;1.13;;;;;;;;;;4969893;28;20029;-86
2023/07/20 10:50:05;;;;;;;3.17;0.70;;;;;;;;;;4979254;28;20077;-88
2023/07/20 10:52:52;;;;;;;2.97;0.50;;;;;;;;;;4981094;28;20490;-86
2023/07/20 10:55:24;;;;;;;15.32;1.58;;;;;;;;;;4969557;28;20038;-86
2023/07/20 10:58:26;;;;;;;3.10;0.85;;;;;;;;;;4995095;28;20038;-86
2023/07/20 11:01:07;;;;;;;2.55;0.60;;;;;;;;;;4938042;28;20045;-86
2023/07/20 11:03:38;;;;;;;2.85;0.70;;;;;;;;;;4974498;28;20069;-87
2023/07/20 11:06:31;;;;;;;2.63;0.80;;;;;;;;;;4988153;28;20045;-85
2023/07/20 11:09:32;;;;;;;2.47;0.70;;;;;;;;;;4976211;28;20048;-86
2023/07/20 11:12:13;;;;;;;1.25;0.50;;;;;;;;;;4946120;28;20051;-86
2023/07/20 11:15:00;;;;;;;1.45;0.52;;;;;;;;;;4950335;28;20225;-88
2023/07/20 11:17:46;;;;;;;2.65;0.50;;;;;;;;;;4919169;28;20154;-87
2023/07/20 11:20:15;;;;;;;1.00;0.50;;;;;;;;;;4923081;28;20385;-86
2023/07/20 11:22:41;;;;;;;1.55;0.50;;;;;;;;;;4921808;28;20099;-86
2023/07/20 11:25:12;;;;;;;2.28;0.70;;;;;;;;;;4952034;28;20030;-86
2023/07/20 11:27:52;;;;;;;1.90;0.60;;;;;;;;;;4922919;28;20121;-86
2023/07/20 11:30:20;;;;;;;2.30;0.55;;;;;;;;;;4933326;28;20134;-88
2023/07/20 11:32:48;;;;;;;1.58;0.60;;;;;;;;;;4923841;28;20036;-88
2023/07/20 11:35:35;;;;;;;2.10;0.50;;;;;;;;;;4914382;29;20528;-86
2023/07/20 11:38:02;;;;;;;2.42;0.68;;;;;;;;;;4931361;28;20042;-86
2023/07/20 11:41:04;;;;;;;1.50;0.50;;;;;;;;;;4913097;28;20107;-85
2023/07/20 11:43:47;;;;;;;2.38;0.60;;;;;;;;;;4909549;28;20191;-86
2023/07/20 11:46:13;;;;;;;2.00;0.60;;;;;;;;;;4905540;28;20051;-87
2023/07/20 11:48:39;;;;;;;1.92;0.43;;;;;;;;;;4977585;28;20076;-83
2023/07/20 11:51:05;;;;;;;1.45;0.40;;;;;;;;;;4983928;28;20061;-84
2023/07/20 11:53:39;;;;;;;4.30;0.50;;;;;;;;;;4994625;28;20038;-84
2023/07/20 11:56:04;;;;;;;2.15;0.43;;;;;;;;;;4982075;28;20069;-84
2023/07/20 11:58:30;;;;;;;1.02;0.30;;;;;;;;;;5000559;28;20077;-85
2023/07/20 12:00:55;;;;;;;1.30;0.28;;;;;;;;;;4987764;28;20030;-84
2023/07/20 12:03:21;;;;;;;1.30;0.30;;;;;;;;;;5015245;28;20069;-81
2023/07/20 12:05:46;;;;;;;4.57;0.40;;;;;;;;;;4981267;28;20076;-85
2023/07/20 12:08:12;;;;;;;0.90;0.20;;;;;;;;;;4982451;28;20532;-86
2023/07/20 12:10:54;;;;;;;1.50;0.32;;;;;;;;;;5008176;28;20046;-85
2023/07/20 12:13:19;;;;;;;1.77;0.40;;;;;;;;;;5011196;28;20070;-84
2023/07/20 12:15:45;;;;;;;1.77;0.60;;;;;;;;;;4999043;28;20089;-85
2023/07/20 12:18:10;;;;;;;1.23;0.32;;;;;;;;;;4981880;28;20566;-86
2023/07/20 12:20:37;;;;;;;0.93;0.30;;;;;;;;;;5002536;28;20113;-83
2023/07/20 12:23:09;;;;;;;1.55;0.30;;;;;;;;;;5012820;28;20363;-85
2023/07/20 12:25:40;;;;;;;0.55;0.30;;;;;;;;;;5015682;28;20030;-83
2023/07/20 12:28:08;;;;;;;1.00;0.30;;;;;;;;;;4988791;28;20504;-83
2023/07/20 12:30:33;;;;;;;2.13;0.38;;;;;;;;;;4999310;28;20456;-84
2023/07/20 12:32:59;;;;;;;3.90;0.40;;;;;;;;;;4993182;28;20040;-84
2023/07/20 12:35:24;;;;;;;2.00;0.20;;;;;;;;;;5015931;28;20050;-86
2023/07/20 12:37:51;;;;;;;1.13;0.30;;;;;;;;;;5016837;28;20042;-84
2023/07/20 12:40:17;;;;;;;1.23;0.40;;;;;;;;;;5018023;28;20092;-85
2023/07/20 12:42:43;;;;;;;1.27;0.35;;;;;;;;;;4982000;28;20042;-81
2023/07/20 12:45:09;;;;;;;3.28;0.50;;;;;;;;;;4994714;28;20037;-83
2023/07/20 12:47:34;;;;;;;1.02;0.25;;;;;;;;;;4988694;28;20741;-84
2023/07/20 12:50:00;;;;;;;0.98;0.30;;;;;;;;;;5015467;28;20081;-84
2023/07/20 12:52:36;;;;;;;1.15;0.30;;;;;;;;;;4998919;28;20052;-85
2023/07/20 12:55:02;;;;;;;5.23;0.40;;;;;;;;;;4998273;28;20486;-84
2023/07/20 12:57:28;;;;;;;1.52;0.60;;;;;;;;;;4997449;28;20498;-82
2023/07/20 12:59:54;;;;;;;1.27;0.30;;;;;;;;;;5012444;28;20038;-85
2023/07/20 13:02:19;;;;;;;1.55;0.40;;;;;;;;;;5004384;28;20441;-86
2023/07/20 13:04:45;;;;;;;0.68;0.20;;;;;;;;;;4997315;28;20034;-85
2023/07/20 13:07:13;;;;;;;0.80;0.20;;;;;;;;;;5014189;28;20096;-84
2023/07/20 13:09:51;;;;;;;0.88;0.30;;;;;;;;;;5015138;28;20034;-85
2023/07/20 13:12:17;;;;;;;2.15;0.30;;;;;;;;;;4990637;28;20498;-84
2023/07/20 13:14:42;;;;;;;1.25;0.40;;;;;;;;;;5013650;28;20048;-86
2023/07/20 13:17:08;;;;;;;1.35;0.32;;;;;;;;;;4981583;28;20087;-85
2023/07/20 13:19:33;;;;;;;1.33;0.35;;;;;;;;;;5011086;28;20053;-85
2023/07/20 13:21:59;;;;;;;1.90;0.38;;;;;;;;;;4988678;28;20087;-85
2023/07/20 13:24:24;;;;;;;0.80;0.20;;;;;;;;;;4986113;28;20502;-84
2023/07/20 13:26:50;;;;;;;0.60;0.20;;;;;;;;;;4989166;28;20042;-86
2023/07/20 13:29:16;;;;;;;1.58;0.40;;;;;;;;;;5016014;28;20033;-85
2023/07/20 13:31:42;;;;;;;0.80;0.13;;;;;;;;;;4997496;28;20064;-85
2023/07/20 13:34:13;;;;;;;2.17;0.32;;;;;;;;;;4998295;28;20045;-84
2023/07/20 13:36:42;;;;;;;1.65;0.20;;;;;;;;;;5011509;28;20034;-86
2023/07/20 13:39:08;;;;;;;2.25;0.30;;;;;;;;;;4989695;28;20573;-85
2023/07/20 13:41:34;;;;;;;0.50;0.20;;;;;;;;;;4995691;28;20056;-83
2023/07/20 13:44:02;;;;;;;3.97;0.40;;;;;;;;;;4996720;28;20042;-85
2023/07/20 13:46:28;;;;;;;1.10;0.30;;;;;;;;;;5003014;28;20116;-86
2023/07/20 13:48:53;;;;;;;0.98;0.40;;;;;;;;;;4996839;28;20030;-86
2023/07/20 13:51:28;;;;;;;0.80;0.30;;;;;;;;;;4986870;28;20030;-84
2023/07/20 13:53:53;;;;;;;0.80;0.13;;;;;;;;;;5013753;28;20046;-86
2023/07/20 13:56:19;;;;;;;1.70;0.30;;;;;;;;;;4990139;28;20044;-85
2023/07/20 13:58:44;;;;;;;1.23;0.22;;;;;;;;;;5011520;28;20088;-84
2023/07/20 14:01:17;;;;;;;1.50;0.30;;;;;;;;;;4987499;28;20038;-83
2023/07/20 14:03:43;;;;;;;1.33;0.40;;;;;;;;;;4969332;28;20077;-83
2023/07/20 14:06:09;;;;;;;1.15;0.30;;;;;;;;;;4973657;28;20061;-84
2023/07/20 14:09:00;;;;;;;0.70;0.20;;;;;;;;;;5011506;28;20136;-83
2023/07/20 14:11:26;;;;;;;1.33;0.30;;;;;;;;;;5000488;28;20089;-83
2023/07/20 14:13:55;;;;;;;0.80;0.20;;;;;;;;;;4981655;28;20465;-86
2023/07/20 14:16:21;;;;;;;0.88;0.20;;;;;;;;;;4997838;28;20042;-84
2023/07/20 14:18:48;;;;;;;1.98;0.30;;;;;;;;;;4992300;28;20096;-83
2023/07/20 14:21:14;;;;;;;2.78;0.30;;;;;;;;;;4965954;28;21636;-85
2023/07/20 14:23:40;;;;;;;1.00;0.30;;;;;;;;;;4985287;28;20046;-83
2023/07/20 14:26:05;;;;;;;0.98;0.35;;;;;;;;;;5010531;28;20084;-82
2023/07/20 14:28:31;;;;;;;4.00;0.40;;;;;;;;;;4994300;28;20046;-83
2023/07/20 14:30:57;;;;;;;1.80;0.40;;;;;;;;;;4976829;28;20042;-81
2023/07/20 14:33:23;;;;;;;0.85;0.20;;;;;;;;;;5013742;28;20045;-82
2023/07/20 14:35:48;;;;;;;2.08;0.30;;;;;;;;;;5009974;28;20046;-83
2023/07/20 14:38:13;;;;;;;3.80;0.38;;;;;;;;;;4997211;28;20764;-83
2023/07/20 14:40:39;;;;;;;1.27;0.35;;;;;;;;;;5015743;28;20060;-84
2023/07/20 14:43:07;;;;;;;0.93;0.30;;;;;;;;;;4997454;28;20037;-84
2023/07/20 14:45:54;;;;;;;2.03;0.32;;;;;;;;;;4990403;28;20041;-84
2023/07/20 14:48:22;;;;;;;1.25;0.43;;;;;;;;;;5016174;28;20041;-82
2023/07/20 14:50:47;;;;;;;6.25;0.45;;;;;;;;;;4978341;28;20037;-83
2023/07/20 14:53:13;;;;;;;1.25;0.43;;;;;;;;;;5005168;28;20030;-82
2023/07/20 14:55:39;;;;;;;1.45;0.40;;;;;;;;;;5001112;28;20180;-83
2023/07/20 14:58:04;;;;;;;4.03;0.50;;;;;;;;;;4986156;28;20041;-83